sensor_id;sensor_type;location;lat;lon;timestamp;pressure;altitude;pressure_sealevel;temperature;humidity
48614;BME280;34408;51.426;5.444;2023-03-26T00:01:42;100691.25;;;11.11;65.76
48614;BME280;34408;51.426;5.444;2023-03-26T00:04:12;100687.97;;;11.09;65.69
48614;BME280;34408;51.426;5.444;2023-03-26T00:06:40;100698.50;;;11.11;65.78
48614;BME280;34408;51.426;5.444;2023-03-26T00:09:10;100679.41;;;11.00;65.99
48614;BME280;34408;51.426;5.444;2023-03-26T00:11:39;100682.84;;;11.07;65.71
48614;BME280;34408;51.426;5.444;2023-03-26T00:14:07;100680.59;;;11.04;65.32
48614;BME280;34408;51.426;5.444;2023-03-26T00:16:41;100674.16;;;11.05;65.74
48614;BME280;34408;51.426;5.444;2023-03-26T00:19:09;100681.41;;;11.05;65.64
48614;BME280;34408;51.426;5.444;2023-03-26T00:21:37;100685.16;;;11.04;65.85
48614;BME280;34408;51.426;5.444;2023-03-26T00:24:07;100684.94;;;11.05;65.82
48614;BME280;34408;51.426;5.444;2023-03-26T00:26:35;100681.41;;;11.05;65.66
48614;BME280;34408;51.426;5.444;2023-03-26T00:29:04;100681.66;;;11.03;65.56
48614;BME280;34408;51.426;5.444;2023-03-26T00:31:34;100677.09;;;11.04;65.72
48614;BME280;34408;51.426;5.444;2023-03-26T00:34:04;100672.75;;;11.03;65.76
48614;BME280;34408;51.426;5.444;2023-03-26T00:36:32;100674.63;;;11.02;65.71
48614;BME280;34408;51.426;5.444;2023-03-26T00:39:03;100671.94;;;11.02;65.59
48614;BME280;34408;51.426;5.444;2023-03-26T00:41:32;100665.97;;;11.00;65.72
48614;BME280;34408;51.426;5.444;2023-03-26T00:44:02;100665.97;;;11.00;65.65
48614;BME280;34408;51.426;5.444;2023-03-26T00:46:30;100656.50;;;10.98;65.79
48614;BME280;34408;51.426;5.444;2023-03-26T00:48:58;100662.69;;;10.98;65.54
48614;BME280;34408;51.426;5.444;2023-03-26T00:51:32;100648.66;;;10.96;65.65
48614;BME280;34408;51.426;5.444;2023-03-26T00:54:00;100650.28;;;10.97;65.71
48614;BME280;34408;51.426;5.444;2023-03-26T00:56:28;100644.91;;;10.97;65.70
48614;BME280;34408;51.426;5.444;2023-03-26T00:58:56;100651.13;;;10.98;65.61
48614;BME280;34408;51.426;5.444;2023-03-26T01:01:27;100646.56;;;10.98;65.52
48614;BME280;34408;51.426;5.444;2023-03-26T01:03:57;100644.91;;;10.97;65.47
48614;BME280;34408;51.426;5.444;2023-03-26T01:06:31;100636.03;;;10.97;65.55
48614;BME280;34408;51.426;5.444;2023-03-26T01:09:05;100634.38;;;10.96;65.51
48614;BME280;34408;51.426;5.444;2023-03-26T01:11:34;100626.31;;;10.96;65.60
48614;BME280;34408;51.426;5.444;2023-03-26T01:14:05;100620.13;;;10.95;65.50
48614;BME280;34408;51.426;5.444;2023-03-26T01:16:36;100620.34;;;10.94;65.72
48614;BME280;34408;51.426;5.444;2023-03-26T01:19:08;100608.78;;;10.93;65.64
48614;BME280;34408;51.426;5.444;2023-03-26T01:21:39;100600.72;;;10.93;65.45
48614;BME280;34408;51.426;5.444;2023-03-26T01:24:09;100596.38;;;10.92;65.70
48614;BME280;34408;51.426;5.444;2023-03-26T01:27:03;100592.88;;;10.92;65.58
48614;BME280;34408;51.426;5.444;2023-03-26T01:29:42;100589.38;;;10.91;65.69
48614;BME280;34408;51.426;5.444;2023-03-26T01:32:35;100587.72;;;10.90;65.68
48614;BME280;34408;51.426;5.444;2023-03-26T01:35:13;100588.78;;;10.89;65.61
48614;BME280;34408;51.426;5.444;2023-03-26T01:37:52;100588.19;;;10.87;65.64
48614;BME280;34408;51.426;5.444;2023-03-26T01:40:28;100585.72;;;10.86;65.39
48614;BME280;34408;51.426;5.444;2023-03-26T01:43:09;100592.16;;;10.85;65.65
48614;BME280;34408;51.426;5.444;2023-03-26T01:45:40;100581.63;;;10.83;65.62
48614;BME280;34408;51.426;5.444;2023-03-26T01:48:08;100566.66;;;10.75;65.57
48614;BME280;34408;51.426;5.444;2023-03-26T01:50:36;100573.56;;;10.83;65.61
48614;BME280;34408;51.426;5.444;2023-03-26T01:53:05;100576.50;;;10.82;65.58
48614;BME280;34408;51.426;5.444;2023-03-26T01:55:44;100574.03;;;10.80;65.78
48614;BME280;34408;51.426;5.444;2023-03-26T01:58:24;100571.56;;;10.79;65.63
48614;BME280;34408;51.426;5.444;2023-03-26T02:01:02;100558.34;;;10.77;65.51
48614;BME280;34408;51.426;5.444;2023-03-26T02:03:37;100552.97;;;10.77;65.57
48614;BME280;34408;51.426;5.444;2023-03-26T02:06:12;100554.84;;;10.76;65.61
48614;BME280;34408;51.426;5.444;2023-03-26T02:08:46;100543.28;;;10.76;65.75
48614;BME280;34408;51.426;5.444;2023-03-26T02:11:19;100544.34;;;10.75;65.60
48614;BME280;34408;51.426;5.444;2023-03-26T02:13:49;100537.31;;;10.74;65.49
48614;BME280;34408;51.426;5.444;2023-03-26T02:16:19;100530.31;;;10.73;65.53
48614;BME280;34408;51.426;5.444;2023-03-26T02:18:47;100525.53;;;10.75;65.58
48614;BME280;34408;51.426;5.444;2023-03-26T02:21:22;100522.84;;;10.75;65.45
48614;BME280;34408;51.426;5.444;2023-03-26T02:23:53;100515.00;;;10.73;65.64
48614;BME280;34408;51.426;5.444;2023-03-26T02:26:24;100516.88;;;10.73;65.49
48614;BME280;34408;51.426;5.444;2023-03-26T02:28:52;100516.88;;;10.73;65.49
48614;BME280;34408;51.426;5.444;2023-03-26T02:31:20;100518.97;;;10.71;65.48
48614;BME280;34408;51.426;5.444;2023-03-26T02:33:52;100509.84;;;10.72;65.41
48614;BME280;34408;51.426;5.444;2023-03-26T02:36:21;100507.97;;;10.72;65.36
48614;BME280;34408;51.426;5.444;2023-03-26T02:38:53;100509.84;;;10.72;65.23
48614;BME280;34408;51.426;5.444;2023-03-26T02:41:25;100508.22;;;10.71;65.33
48614;BME280;34408;51.426;5.444;2023-03-26T02:43:52;100503.66;;;10.71;65.28
48614;BME280;34408;51.426;5.444;2023-03-26T02:46:20;100500.16;;;10.71;65.45
48614;BME280;34408;51.426;5.444;2023-03-26T02:48:48;100490.22;;;10.71;65.33
48614;BME280;34408;51.426;5.444;2023-03-26T02:51:16;100487.75;;;10.70;65.39
48614;BME280;34408;51.426;5.444;2023-03-26T02:53:45;100483.44;;;10.69;65.36
48614;BME280;34408;51.426;5.444;2023-03-26T02:56:12;100478.41;;;10.72;65.27
48614;BME280;34408;51.426;5.444;2023-03-26T02:58:42;100471.41;;;10.71;65.31
48614;BME280;34408;51.426;5.444;2023-03-26T03:01:09;100466.03;;;10.71;65.30
48614;BME280;34408;51.426;5.444;2023-03-26T03:03:37;100457.72;;;10.73;65.30
48614;BME280;34408;51.426;5.444;2023-03-26T03:06:05;100456.09;;;10.72;65.10
48614;BME280;34408;51.426;5.444;2023-03-26T03:08:34;100457.97;;;10.71;65.33
48614;BME280;34408;51.426;5.444;2023-03-26T03:11:06;100457.16;;;10.71;65.32
48614;BME280;34408;51.426;5.444;2023-03-26T03:13:35;100434.34;;;10.62;65.27
48614;BME280;34408;51.426;5.444;2023-03-26T03:16:04;100443.13;;;10.69;65.24
48614;BME280;34408;51.426;5.444;2023-03-26T03:18:33;100436.94;;;10.68;65.25
48614;BME280;34408;51.426;5.444;2023-03-26T03:21:01;100436.94;;;10.68;65.32
48614;BME280;34408;51.426;5.444;2023-03-26T03:23:28;100436.13;;;10.68;65.41
48614;BME280;34408;51.426;5.444;2023-03-26T03:25:57;100427.22;;;10.67;65.71
48614;BME280;34408;51.426;5.444;2023-03-26T03:28:25;100419.97;;;10.68;65.37
48614;BME280;34408;51.426;5.444;2023-03-26T03:30:52;100419.16;;;10.67;65.27
48614;BME280;34408;51.426;5.444;2023-03-26T03:33:24;100414.03;;;10.66;65.51
48614;BME280;34408;51.426;5.444;2023-03-26T03:35:52;100414.03;;;10.66;65.50
48614;BME280;34408;51.426;5.444;2023-03-26T03:38:20;100415.31;;;10.63;65.67
48614;BME280;34408;51.426;5.444;2023-03-26T03:40:48;100413.66;;;10.62;65.62
48614;BME280;34408;51.426;5.444;2023-03-26T03:43:16;100414.72;;;10.61;65.72
48614;BME280;34408;51.426;5.444;2023-03-26T03:45:44;100412.84;;;10.62;65.71
48614;BME280;34408;51.426;5.444;2023-03-26T03:48:12;100403.16;;;10.61;65.71
48614;BME280;34408;51.426;5.444;2023-03-26T03:50:41;100401.28;;;10.61;65.58
48614;BME280;34408;51.426;5.444;2023-03-26T03:53:09;100393.09;;;10.56;65.90
48614;BME280;34408;51.426;5.444;2023-03-26T03:55:41;100391.00;;;10.58;65.94
48614;BME280;34408;51.426;5.444;2023-03-26T03:58:18;100388.56;;;10.57;66.09
48614;BME280;34408;51.426;5.444;2023-03-26T04:00:47;100384.81;;;10.58;65.76
48614;BME280;34408;51.426;5.444;2023-03-26T04:03:15;100382.94;;;10.58;66.09
48614;BME280;34408;51.426;5.444;2023-03-26T04:05:45;100374.28;;;10.56;66.09
48614;BME280;34408;51.426;5.444;2023-03-26T04:08:15;100352.69;;;10.51;66.01
48614;BME280;34408;51.426;5.444;2023-03-26T04:10:43;100368.69;;;10.58;66.03
48614;BME280;34408;51.426;5.444;2023-03-26T04:13:12;100353.63;;;10.57;66.37
48614;BME280;34408;51.426;5.444;2023-03-26T04:15:41;100358.19;;;10.56;66.20
48614;BME280;34408;51.426;5.444;2023-03-26T04:18:09;100351.97;;;10.56;66.21
48614;BME280;34408;51.426;5.444;2023-03-26T04:20:38;100351.16;;;10.55;66.24
48614;BME280;34408;51.426;5.444;2023-03-26T04:23:13;100333.88;;;10.51;66.36
48614;BME280;34408;51.426;5.444;2023-03-26T04:25:42;100336.09;;;10.54;66.24
48614;BME280;34408;51.426;5.444;2023-03-26T04:28:16;100330.72;;;10.54;66.45
48614;BME280;34408;51.426;5.444;2023-03-26T04:30:48;100326.16;;;10.55;66.34
48614;BME280;34408;51.426;5.444;2023-03-26T04:33:19;100313.78;;;10.54;66.40
48614;BME280;34408;51.426;5.444;2023-03-26T04:35:47;100312.97;;;10.53;66.40
48614;BME280;34408;51.426;5.444;2023-03-26T04:38:16;100308.66;;;10.52;66.50
48614;BME280;34408;51.426;5.444;2023-03-26T04:40:45;100305.13;;;10.52;66.44
48614;BME280;34408;51.426;5.444;2023-03-26T04:43:15;100294.38;;;10.52;66.64
48614;BME280;34408;51.426;5.444;2023-03-26T04:45:44;100299.75;;;10.52;66.51
48614;BME280;34408;51.426;5.444;2023-03-26T04:48:13;100287.16;;;10.52;66.56
48614;BME280;34408;51.426;5.444;2023-03-26T04:50:41;100279.91;;;10.53;66.43
48614;BME280;34408;51.426;5.444;2023-03-26T04:53:11;100279.09;;;10.52;66.82
48614;BME280;34408;51.426;5.444;2023-03-26T04:55:44;100271.84;;;10.53;66.61
48614;BME280;34408;51.426;5.444;2023-03-26T04:58:14;100267.53;;;10.52;66.59
48614;BME280;34408;51.426;5.444;2023-03-26T05:00:42;100263.19;;;10.51;66.66
48614;BME280;34408;51.426;5.444;2023-03-26T05:03:12;100265.88;;;10.51;66.66
48614;BME280;34408;51.426;5.444;2023-03-26T05:05:41;100262.38;;;10.50;66.84
48614;BME280;34408;51.426;5.444;2023-03-26T05:08:09;100255.16;;;10.51;66.80
48614;BME280;34408;51.426;5.444;2023-03-26T05:10:37;100254.31;;;10.50;66.88
48614;BME280;34408;51.426;5.444;2023-03-26T05:13:06;100252.69;;;10.49;66.82
48614;BME280;34408;51.426;5.444;2023-03-26T05:15:33;100252.69;;;10.49;66.85
48614;BME280;34408;51.426;5.444;2023-03-26T05:18:01;100258.06;;;10.49;66.88
48614;BME280;34408;51.426;5.444;2023-03-26T05:20:29;100254.56;;;10.49;66.88
48614;BME280;34408;51.426;5.444;2023-03-26T05:22:57;100253.50;;;10.50;66.85
48614;BME280;34408;51.426;5.444;2023-03-26T05:25:25;100244.63;;;10.49;66.85
48614;BME280;34408;51.426;5.444;2023-03-26T05:27:53;100237.88;;;10.47;66.77
48614;BME280;34408;51.426;5.444;2023-03-26T05:30:22;100238.69;;;10.47;66.89
48614;BME280;34408;51.426;5.444;2023-03-26T05:32:50;100233.53;;;10.46;66.95
48614;BME280;34408;51.426;5.444;2023-03-26T05:35:18;100222.78;;;10.46;66.88
48614;BME280;34408;51.426;5.444;2023-03-26T05:37:47;100222.78;;;10.46;67.09
48614;BME280;34408;51.426;5.444;2023-03-26T05:40:17;100210.41;;;10.44;66.93
48614;BME280;34408;51.426;5.444;2023-03-26T05:42:45;100217.66;;;10.44;66.93
48614;BME280;34408;51.426;5.444;2023-03-26T05:45:14;100193.06;;;10.35;67.07
48614;BME280;34408;51.426;5.444;2023-03-26T05:47:43;100206.09;;;10.43;67.03
48614;BME280;34408;51.426;5.444;2023-03-26T05:50:11;100196.41;;;10.42;67.18
48614;BME280;34408;51.426;5.444;2023-03-26T05:52:39;100191.03;;;10.42;67.07
48614;BME280;34408;51.426;5.444;2023-03-26T05:55:07;100189.66;;;10.40;67.08
48614;BME280;34408;51.426;5.444;2023-03-26T05:57:35;100193.72;;;10.42;66.90
48614;BME280;34408;51.426;5.444;2023-03-26T06:00:05;100174.50;;;10.34;67.16
48614;BME280;34408;51.426;5.444;2023-03-26T06:02:34;100181.34;;;10.41;67.27
48614;BME280;34408;51.426;5.444;2023-03-26T06:05:04;100178.91;;;10.40;67.04
48614;BME280;34408;51.426;5.444;2023-03-26T06:07:33;100179.97;;;10.39;67.23
48614;BME280;34408;51.426;5.444;2023-03-26T06:10:01;100177.28;;;10.39;67.62
48614;BME280;34408;51.426;5.444;2023-03-26T06:12:29;100180.78;;;10.39;67.44
48614;BME280;34408;51.426;5.444;2023-03-26T06:14:56;100169.22;;;10.39;67.38
48614;BME280;34408;51.426;5.444;2023-03-26T06:17:24;100167.34;;;10.39;67.17
48614;BME280;34408;51.426;5.444;2023-03-26T06:19:52;100169.22;;;10.39;67.22
48614;BME280;34408;51.426;5.444;2023-03-26T06:22:21;100166.78;;;10.37;67.29
48614;BME280;34408;51.426;5.444;2023-03-26T06:24:49;100165.97;;;10.37;67.27
48614;BME280;34408;51.426;5.444;2023-03-26T06:27:18;100170.53;;;10.36;67.55
48614;BME280;34408;51.426;5.444;2023-03-26T06:29:46;100170.53;;;10.36;67.58
48614;BME280;34408;51.426;5.444;2023-03-26T06:32:14;100170.53;;;10.36;67.31
48614;BME280;34408;51.426;5.444;2023-03-26T06:34:46;100164.63;;;10.51;66.96
48614;BME280;34408;51.426;5.444;2023-03-26T06:37:13;100170.06;;;10.68;66.33
48614;BME280;34408;51.426;5.444;2023-03-26T06:39:42;100169.06;;;10.86;65.79
48614;BME280;34408;51.426;5.444;2023-03-26T06:42:11;100167.78;;;11.05;65.12
48614;BME280;34408;51.426;5.444;2023-03-26T06:44:38;100167.81;;;11.22;64.58
48614;BME280;34408;51.426;5.444;2023-03-26T06:47:06;100166.78;;;11.39;64.04
48614;BME280;34408;51.426;5.444;2023-03-26T06:49:34;100170.06;;;11.58;63.27
48614;BME280;34408;51.426;5.444;2023-03-26T06:52:04;100167.03;;;11.71;62.89
48614;BME280;34408;51.426;5.444;2023-03-26T06:54:31;100162.97;;;11.86;62.59
48614;BME280;34408;51.426;5.444;2023-03-26T06:57:01;100165.41;;;11.87;62.44
48614;BME280;34408;51.426;5.444;2023-03-26T06:59:29;100159.03;;;11.77;62.71
48614;BME280;34408;51.426;5.444;2023-03-26T07:01:56;100156.91;;;11.62;63.24
48614;BME280;34408;51.426;5.444;2023-03-26T07:04:24;100155.06;;;11.46;63.68
48614;BME280;34408;51.426;5.444;2023-03-26T07:06:52;100154.56;;;11.32;64.50
48614;BME280;34408;51.426;5.444;2023-03-26T07:09:20;100151.13;;;11.20;64.87
48614;BME280;34408;51.426;5.444;2023-03-26T07:11:48;100153.63;;;11.09;65.36
48614;BME280;34408;51.426;5.444;2023-03-26T07:14:17;100149.47;;;11.02;65.49
48614;BME280;34408;51.426;5.444;2023-03-26T07:16:45;100149.38;;;10.97;65.62
48614;BME280;34408;51.426;5.444;2023-03-26T07:19:13;100151.16;;;10.91;65.89
48614;BME280;34408;51.426;5.444;2023-03-26T07:21:41;100144.63;;;10.87;65.99
48614;BME280;34408;51.426;5.444;2023-03-26T07:24:10;100140.78;;;10.83;66.15
48614;BME280;34408;51.426;5.444;2023-03-26T07:26:48;100140.22;;;10.81;66.42
48614;BME280;34408;51.426;5.444;2023-03-26T07:29:29;100139.06;;;10.77;66.38
48614;BME280;34408;51.426;5.444;2023-03-26T07:32:08;100133.34;;;10.73;66.57
48614;BME280;34408;51.426;5.444;2023-03-26T07:34:47;100129.97;;;10.66;66.82
48614;BME280;34408;51.426;5.444;2023-03-26T07:37:29;100137.81;;;10.68;66.89
48614;BME280;34408;51.426;5.444;2023-03-26T07:40:02;100122.16;;;10.65;67.09
48614;BME280;34408;51.426;5.444;2023-03-26T07:42:47;100131.28;;;10.64;67.05
48614;BME280;34408;51.426;5.444;2023-03-26T07:45:23;100124.19;;;10.58;67.15
48614;BME280;34408;51.426;5.444;2023-03-26T07:47:53;100121.25;;;10.59;67.10
48614;BME280;34408;51.426;5.444;2023-03-26T07:50:23;100116.94;;;10.58;67.25
48614;BME280;34408;51.426;5.444;2023-03-26T07:52:52;100113.09;;;10.54;67.23
48614;BME280;34408;51.426;5.444;2023-03-26T07:55:20;100114.72;;;10.55;67.47
48614;BME280;34408;51.426;5.444;2023-03-26T07:57:57;100111.47;;;10.53;67.51
48614;BME280;34408;51.426;5.444;2023-03-26T08:00:33;100111.47;;;10.53;67.43
48614;BME280;34408;51.426;5.444;2023-03-26T08:03:26;100105.50;;;10.51;67.60
48614;BME280;34408;51.426;5.444;2023-03-26T08:06:04;100106.31;;;10.52;67.73
48614;BME280;34408;51.426;5.444;2023-03-26T08:08:44;100101.19;;;10.50;67.57
48614;BME280;34408;51.426;5.444;2023-03-26T08:11:24;100106.56;;;10.50;67.89
48614;BME280;34408;51.426;5.444;2023-03-26T08:14:02;100102.47;;;10.48;67.70
48614;BME280;34408;51.426;5.444;2023-03-26T08:16:39;100097.69;;;10.50;67.51
48614;BME280;34408;51.426;5.444;2023-03-26T08:19:25;100096.06;;;10.49;67.85
48614;BME280;34408;51.426;5.444;2023-03-26T08:22:01;100105.19;;;10.48;67.85
48614;BME280;34408;51.426;5.444;2023-03-26T08:24:38;100099.81;;;10.48;67.93
48614;BME280;34408;51.426;5.444;2023-03-26T08:27:12;100093.63;;;10.47;68.03
48614;BME280;34408;51.426;5.444;2023-03-26T08:29:49;100100.03;;;10.46;68.12
48614;BME280;34408;51.426;5.444;2023-03-26T08:32:22;100091.16;;;10.46;68.04
48614;BME280;34408;51.426;5.444;2023-03-26T08:34:50;100099.22;;;10.46;68.14
48614;BME280;34408;51.426;5.444;2023-03-26T08:37:18;100101.91;;;10.46;68.08
48614;BME280;34408;51.426;5.444;2023-03-26T08:39:46;100094.66;;;10.46;68.00
48614;BME280;34408;51.426;5.444;2023-03-26T08:42:39;100097.34;;;10.46;68.05
48614;BME280;34408;51.426;5.444;2023-03-26T08:45:34;100091.75;;;10.48;68.04
48614;BME280;34408;51.426;5.444;2023-03-26T08:54:46;100090.94;;;10.47;68.07
48614;BME280;34408;51.426;5.444;2023-03-26T09:00:37;100086.38;;;10.48;68.14
48614;BME280;34408;51.426;5.444;2023-03-26T09:03:28;100092.56;;;10.48;68.24
48614;BME280;34408;51.426;5.444;2023-03-26T09:06:19;100085.56;;;10.47;67.99
48614;BME280;34408;51.426;5.444;2023-03-26T09:09:18;100083.69;;;10.48;67.96
48614;BME280;34408;51.426;5.444;2023-03-26T09:15:35;100088.00;;;10.49;68.06
48614;BME280;34408;51.426;5.444;2023-03-26T09:21:40;100087.19;;;10.48;68.27
48614;BME280;34408;51.426;5.444;2023-03-26T09:27:36;100071.47;;;10.40;68.22
48614;BME280;34408;51.426;5.444;2023-03-26T09:30:34;100081.00;;;10.48;68.34
48614;BME280;34408;51.426;5.444;2023-03-26T09:33:31;100087.19;;;10.48;68.14
48614;BME280;34408;51.426;5.444;2023-03-26T09:36:19;100084.75;;;10.47;68.08
48614;BME280;34408;51.426;5.444;2023-03-26T09:38:51;100090.69;;;10.49;68.13
48614;BME280;34408;51.426;5.444;2023-03-26T09:41:34;100082.63;;;10.49;68.17
48614;BME280;34408;51.426;5.444;2023-03-26T09:44:36;100088.00;;;10.49;67.65
48614;BME280;34408;51.426;5.444;2023-03-26T09:47:25;100088.56;;;10.51;67.90
48614;BME280;34408;51.426;5.444;2023-03-26T09:50:09;100083.78;;;10.53;68.03
48614;BME280;34408;51.426;5.444;2023-03-26T09:52:59;100083.19;;;10.51;68.02
48614;BME280;34408;51.426;5.444;2023-03-26T09:55:49;100084.84;;;10.52;67.83
48614;BME280;34408;51.426;5.444;2023-03-26T09:58:59;100090.22;;;10.52;67.66
48614;BME280;34408;51.426;5.444;2023-03-26T10:01:32;100092.06;;;10.51;67.97
48614;BME280;34408;51.426;5.444;2023-03-26T10:04:30;100078.22;;;10.42;68.05
48614;BME280;34408;51.426;5.444;2023-03-26T10:07:06;100087.75;;;10.50;68.21
48614;BME280;34408;51.426;5.444;2023-03-26T10:09:47;100097.69;;;10.50;68.02
48614;BME280;34408;51.426;5.444;2023-03-26T10:12:34;100095.81;;;10.50;68.24
48614;BME280;34408;51.426;5.444;2023-03-26T10:15:19;100100.38;;;10.50;68.22
48614;BME280;34408;51.426;5.444;2023-03-26T10:17:58;100098.50;;;10.50;68.23
48614;BME280;34408;51.426;5.444;2023-03-26T10:20:57;100100.38;;;10.50;68.10
48614;BME280;34408;51.426;5.444;2023-03-26T10:23:49;100099.31;;;10.51;68.15
48614;BME280;34408;51.426;5.444;2023-03-26T10:26:33;100095.81;;;10.50;68.08
48614;BME280;34408;51.426;5.444;2023-03-26T10:29:39;100102.25;;;10.49;68.08
48614;BME280;34408;51.426;5.444;2023-03-26T10:32:19;100111.13;;;10.50;68.02
48614;BME280;34408;51.426;5.444;2023-03-26T10:34:56;100110.31;;;10.49;67.94
48614;BME280;34408;51.426;5.444;2023-03-26T10:37:37;100103.06;;;10.50;68.01
48614;BME280;34408;51.426;5.444;2023-03-26T10:40:18;100105.75;;;10.50;67.89
48614;BME280;34408;51.426;5.444;2023-03-26T10:43:00;100108.19;;;10.51;67.97
48614;BME280;34408;51.426;5.444;2023-03-26T10:45:46;100107.38;;;10.51;68.00
48614;BME280;34408;51.426;5.444;2023-03-26T10:48:29;100109.00;;;10.52;67.99
48614;BME280;34408;51.426;5.444;2023-03-26T10:51:19;100108.19;;;10.51;67.88
48614;BME280;34408;51.426;5.444;2023-03-26T10:53:53;100110.88;;;10.51;68.00
48614;BME280;34408;51.426;5.444;2023-03-26T10:56:26;100107.38;;;10.51;67.80
48614;BME280;34408;51.426;5.444;2023-03-26T10:58:55;100111.69;;;10.52;67.92
48614;BME280;34408;51.426;5.444;2023-03-26T11:01:34;100096.78;;;10.44;68.01
48614;BME280;34408;51.426;5.444;2023-03-26T11:04:14;100105.50;;;10.51;68.15
48614;BME280;34408;51.426;5.444;2023-03-26T11:06:50;100110.66;;;10.53;68.08
48614;BME280;34408;51.426;5.444;2023-03-26T11:09:28;100107.13;;;10.52;68.06
48614;BME280;34408;51.426;5.444;2023-03-26T11:12:04;100112.50;;;10.52;68.16
48614;BME280;34408;51.426;5.444;2023-03-26T11:14:59;100111.78;;;10.57;67.63
48614;BME280;34408;51.426;5.444;2023-03-26T11:17:41;100118.84;;;10.74;67.16
48614;BME280;34408;51.426;5.444;2023-03-26T11:20:16;100113.50;;;10.91;66.29
48614;BME280;34408;51.426;5.444;2023-03-26T11:22:55;100114.91;;;11.11;65.41
48614;BME280;34408;51.426;5.444;2023-03-26T11:25:43;100113.88;;;11.28;65.05
48614;BME280;34408;51.426;5.444;2023-03-26T11:28:27;100114.44;;;11.47;64.11
48614;BME280;34408;51.426;5.444;2023-03-26T11:31:04;100117.94;;;11.64;63.48
48614;BME280;34408;51.426;5.444;2023-03-26T11:33:38;100117.44;;;11.84;62.72
48614;BME280;34408;51.426;5.444;2023-03-26T11:36:16;100120.91;;;12.01;62.40
48614;BME280;34408;51.426;5.444;2023-03-26T11:38:48;100120.81;;;12.13;61.92
48614;BME280;34408;51.426;5.444;2023-03-26T11:41:19;100124.72;;;12.27;61.32
48614;BME280;34408;51.426;5.444;2023-03-26T11:43:51;100127.78;;;12.36;61.15
48614;BME280;34408;51.426;5.444;2023-03-26T11:46:23;100125.41;;;12.39;60.61
48614;BME280;34408;51.426;5.444;2023-03-26T11:48:56;100137.19;;;12.33;60.93
48614;BME280;34408;51.426;5.444;2023-03-26T11:51:28;100135.94;;;12.19;61.15
48614;BME280;34408;51.426;5.444;2023-03-26T11:53:58;100140.81;;;12.00;62.17
48614;BME280;34408;51.426;5.444;2023-03-26T11:56:29;100134.91;;;11.82;62.34
48614;BME280;34408;51.426;5.444;2023-03-26T11:59:01;100141.09;;;11.65;63.21
48614;BME280;34408;51.426;5.444;2023-03-26T12:01:41;100137.34;;;11.50;63.69
48614;BME280;34408;51.426;5.444;2023-03-26T12:04:13;100138.81;;;11.40;64.23
48614;BME280;34408;51.426;5.444;2023-03-26T12:06:50;100132.22;;;11.31;64.72
48614;BME280;34408;51.426;5.444;2023-03-26T12:09:19;100145.34;;;11.28;64.75
48614;BME280;34408;51.426;5.444;2023-03-26T12:11:48;100140.69;;;11.23;65.17
48614;BME280;34408;51.426;5.444;2023-03-26T12:14:21;100145.72;;;11.20;65.41
48614;BME280;34408;51.426;5.444;2023-03-26T12:16:58;100145.41;;;11.16;65.64
48614;BME280;34408;51.426;5.444;2023-03-26T12:19:28;100149.63;;;11.12;66.02
48614;BME280;34408;51.426;5.444;2023-03-26T12:22:01;100146.47;;;11.15;65.68
48614;BME280;34408;51.426;5.444;2023-03-26T12:24:31;100148.13;;;11.33;65.38
48614;BME280;34408;51.426;5.444;2023-03-26T12:27:00;100143.31;;;11.52;64.85
48614;BME280;34408;51.426;5.444;2023-03-26T12:29:29;100154.06;;;11.68;64.27
48614;BME280;34408;51.426;5.444;2023-03-26T12:32:05;100154.41;;;11.89;63.63
48614;BME280;34408;51.426;5.444;2023-03-26T12:34:36;100144.91;;;12.03;63.31
48614;BME280;34408;51.426;5.444;2023-03-26T12:37:06;100159.50;;;12.07;63.32
48614;BME280;34408;51.426;5.444;2023-03-26T12:39:37;100154.63;;;12.04;63.17
48614;BME280;34408;51.426;5.444;2023-03-26T12:42:28;100153.91;;;11.92;63.71
48614;BME280;34408;51.426;5.444;2023-03-26T12:45:19;100153.91;;;11.75;64.12
48614;BME280;34408;51.426;5.444;2023-03-26T12:47:47;100162.13;;;11.68;64.63
48614;BME280;34408;51.426;5.444;2023-03-26T12:50:35;100161.97;;;11.58;64.73
48614;BME280;34408;51.426;5.444;2023-03-26T12:53:30;100160.75;;;11.49;65.05
48614;BME280;34408;51.426;5.444;2023-03-26T12:56:10;100161.72;;;11.43;65.56
48614;BME280;34408;51.426;5.444;2023-03-26T12:58:59;100166.78;;;11.39;65.71
48614;BME280;34408;51.426;5.444;2023-03-26T13:01:39;100166.22;;;11.37;65.79
48614;BME280;34408;51.426;5.444;2023-03-26T13:04:24;100162.72;;;11.37;65.22
48614;BME280;34408;51.426;5.444;2023-03-26T13:07:08;100176.16;;;11.37;65.43
48614;BME280;34408;51.426;5.444;2023-03-26T13:09:48;100168.56;;;11.34;65.29
48614;BME280;34408;51.426;5.444;2023-03-26T13:12:28;100175.84;;;11.33;65.64
48614;BME280;34408;51.426;5.444;2023-03-26T13:15:16;100182.28;;;11.32;65.47
48614;BME280;34408;51.426;5.444;2023-03-26T13:17:57;100179.00;;;11.30;65.59
48614;BME280;34408;51.426;5.444;2023-03-26T13:20:46;100181.94;;;11.29;65.83
48614;BME280;34408;51.426;5.444;2023-03-26T13:23:26;100181.94;;;11.29;65.97
48614;BME280;34408;51.426;5.444;2023-03-26T13:26:02;100187.56;;;11.27;66.29
48614;BME280;34408;51.426;5.444;2023-03-26T13:28:40;100186.16;;;11.25;66.13
48614;BME280;34408;51.426;5.444;2023-03-26T13:31:16;100187.47;;;11.22;66.22
48614;BME280;34408;51.426;5.444;2023-03-26T13:33:55;100185.84;;;11.21;66.16
48614;BME280;34408;51.426;5.444;2023-03-26T13:36:30;100191.22;;;11.21;66.39
48614;BME280;34408;51.426;5.444;2023-03-26T13:39:12;100191.97;;;11.33;66.18
48614;BME280;34408;51.426;5.444;2023-03-26T13:41:54;100195.81;;;11.54;65.39
48614;BME280;34408;51.426;5.444;2023-03-26T13:44:32;100195.91;;;11.76;64.68
48614;BME280;34408;51.426;5.444;2023-03-26T13:47:09;100197.31;;;11.95;63.85